Time;durP1;ratioP1;P1;durP2;ratioP2;P2;SDS_P1;SDS_P2;PMS_P1;PMS_P2;Temp;Humidity;BMP_temperature;BMP_pressure;BME280_temperature;BME280_humidity;BME280_pressure;Samples;Min_cycle;Max_cycle;Signal;HPM_P1;HPM_P2
2021/08/03 17:44:17;;;;;;;8.15;2.90;;;26.50;99.90;;;;;;5982733;23;20076;31
2021/08/03 17:46:46;;;;;;;14.68;2.95;;;26.50;99.90;;;;;;4818729;29;20051;-81
2021/08/03 17:49:15;;;;;;;13.55;3.35;;;26.50;99.90;;;;;;4833675;29;20039;-84
2021/08/03 17:51:43;;;;;;;20.20;3.67;;;26.40;99.90;;;;;;4817343;29;20141;-84
2021/08/03 17:54:11;;;;;;;17.83;3.17;;;26.40;99.90;;;;;;4803257;29;20031;-80
2021/08/03 17:56:38;;;;;;;10.57;2.67;;;26.30;99.90;;;;;;4800234;29;20116;-91
2021/08/03 17:59:10;;;;;;;9.20;2.78;;;26.30;99.90;;;;;;4804427;29;20046;-80
2021/08/03 18:01:39;;;;;;;13.02;2.83;;;26.30;99.90;;;;;;4800912;29;20054;-79
2021/08/03 18:04:05;;;;;;;11.10;2.95;;;26.20;99.90;;;;;;4804691;29;20027;-80
2021/08/03 18:06:31;;;;;;;10.05;3.03;;;26.20;99.90;;;;;;4803493;29;20039;-84
2021/08/03 18:08:57;;;;;;;9.50;3.28;;;26.20;99.90;;;;;;4804635;29;20034;-83
2021/08/03 18:11:26;;;;;;;7.93;3.22;;;26.20;99.90;;;;;;4803037;29;20043;-85
2021/08/03 18:13:53;;;;;;;22.05;4.10;;;26.10;99.90;;;;;;4806221;29;20031;-79
2021/08/03 18:16:20;;;;;;;7.90;3.08;;;26.10;99.90;;;;;;4805340;29;20034;-82
2021/08/03 18:18:56;;;;;;;11.73;3.30;;;26.00;99.90;;;;;;4802693;29;20489;-83
2021/08/03 18:21:23;;;;;;;9.38;3.05;;;25.90;99.90;;;;;;4818838;29;20054;-83
2021/08/03 18:23:49;;;;;;;12.63;3.85;;;25.90;99.90;;;;;;4805552;29;20119;-83
2021/08/03 18:26:28;;;;;;;8.27;3.15;;;25.80;99.90;;;;;;4783797;29;20426;-82
2021/08/03 18:29:14;;;;;;;18.50;4.13;;;25.80;99.90;;;;;;4803084;29;20399;-82
2021/08/03 18:31:40;;;;;;;13.63;3.33;;;25.70;99.90;;;;;;4775972;29;20042;-82
2021/08/03 18:34:09;;;;;;;8.57;2.88;;;25.70;99.90;;;;;;4799538;29;20035;-82
2021/08/03 18:36:40;;;;;;;13.93;4.05;;;25.60;99.90;;;;;;4806065;29;20446;-81
2021/08/03 18:39:07;;;;;;;10.55;2.85;;;25.60;99.90;;;;;;4818885;29;20082;-84
2021/08/03 18:41:39;;;;;;;12.50;3.40;;;25.60;99.90;;;;;;4806335;29;20579;-82
2021/08/03 18:44:10;;;;;;;8.25;2.70;;;25.50;99.90;;;;;;4805885;29;20111;-84
2021/08/03 18:46:36;;;;;;;;;;;25.50;99.90;;;;;;4823738;29;20114;-81
2021/08/03 18:49:03;;;;;;;14.68;3.85;;;25.50;99.90;;;;;;4823051;29;20328;-87
2021/08/03 18:51:29;;;;;;;10.90;3.90;;;25.40;99.90;;;;;;4823198;29;20045;-83
2021/08/03 18:53:57;;;;;;;15.13;3.92;;;25.40;99.90;;;;;;4822115;29;20038;-83
2021/08/03 18:56:30;;;;;;;20.95;4.00;;;25.40;99.90;;;;;;4822669;29;20045;-83
2021/08/03 18:58:57;;;;;;;19.40;4.43;;;25.30;99.90;;;;;;4814651;29;20030;-83
2021/08/03 19:01:28;;;;;;;16.63;4.93;;;25.30;99.90;;;;;;4821859;29;20034;-82
2021/08/03 19:03:56;;;;;;;16.33;5.40;;;25.20;99.90;;;;;;4823574;29;20038;-82
2021/08/03 19:07:01;;;;;;;18.25;4.72;;;25.20;99.90;;;;;;4822551;29;20365;-82
2021/08/03 19:09:32;;;;;;;20.65;4.82;;;25.10;99.90;;;;;;4822948;29;20042;-82
2021/08/03 19:11:58;;;;;;;;;;;24.90;99.90;;;;;;4806921;29;20031;-83
2021/08/03 19:14:42;;;;;;;17.27;4.80;;;24.90;99.90;;;;;;4822568;29;19916;-85
2021/08/03 19:17:12;;;;;;;17.30;4.63;;;24.80;99.90;;;;;;4822827;29;20022;-82
2021/08/03 19:19:46;;;;;;;31.65;5.32;;;24.80;99.90;;;;;;4823003;29;20045;-81
2021/08/03 19:22:21;;;;;;;14.20;4.95;;;24.70;99.90;;;;;;4822080;29;20026;-82
2021/08/03 19:24:52;;;;;;;17.00;5.65;;;24.70;99.90;;;;;;4822735;29;20362;-82
2021/08/03 19:27:18;;;;;;;12.33;5.17;;;24.60;99.90;;;;;;4824046;29;20391;-83
2021/08/03 19:29:45;;;;;;;12.48;4.53;;;24.60;99.90;;;;;;4817860;29;20276;-83
2021/08/03 19:32:12;;;;;;;15.88;4.82;;;24.60;99.90;;;;;;4824196;29;20041;-85
2021/08/03 19:34:39;;;;;;;12.57;5.15;;;24.60;99.90;;;;;;4821069;29;20038;-85
2021/08/03 19:37:05;;;;;;;10.27;3.78;;;24.60;99.90;;;;;;4823381;29;20026;-85
2021/08/03 19:39:33;;;;;;;13.35;5.60;;;24.60;99.90;;;;;;4822019;29;20479;-86
2021/08/03 19:42:00;;;;;;;17.63;4.18;;;24.70;99.90;;;;;;4822440;29;20053;-86
2021/08/03 19:44:26;;;;;;;13.93;4.63;;;24.80;99.90;;;;;;4819220;29;20030;-86
2021/08/03 19:46:53;;;;;;;10.25;4.22;;;24.80;99.90;;;;;;4823397;29;20046;-87
2021/08/03 19:49:24;;;;;;;11.02;4.10;;;24.70;99.90;;;;;;4822360;29;20449;-85
2021/08/03 19:51:52;;;;;;;17.40;4.25;;;24.70;99.90;;;;;;4820388;29;20114;-86
2021/08/03 19:54:19;;;;;;;10.30;4.07;;;24.60;99.90;;;;;;4822645;29;20549;-87
2021/08/03 19:56:47;;;;;;;12.77;4.55;;;24.50;99.90;;;;;;4823491;29;20125;-87
2021/08/03 19:59:16;;;;;;;11.90;4.32;;;24.50;99.90;;;;;;4816005;29;20074;-84
2021/08/03 20:01:41;;;;;;;17.25;4.95;;;24.60;99.90;;;;;;4821609;29;20136;-85
2021/08/03 20:04:07;;;;;;;9.68;4.05;;;24.60;99.90;;;;;;4821154;29;20105;-85
2021/08/03 20:06:40;;;;;;;17.45;5.00;;;24.70;99.90;;;;;;4822738;29;20031;-86
2021/08/03 20:09:06;;;;;;;12.93;4.25;;;24.60;99.90;;;;;;4819431;29;20066;-85
2021/08/03 20:11:34;;;;;;;11.30;4.20;;;24.60;99.90;;;;;;4822363;29;20049;-86
2021/08/03 20:14:00;;;;;;;11.18;4.45;;;24.50;99.90;;;;;;4819974;29;20392;-90
2021/08/03 20:16:27;;;;;;;14.50;4.88;;;24.50;99.90;;;;;;4822717;29;20030;-87
2021/08/03 20:18:53;;;;;;;13.43;4.63;;;24.40;99.90;;;;;;4820342;29;20038;-86
2021/08/03 20:21:19;;;;;;;20.55;4.40;;;24.40;99.90;;;;;;4821821;29;20069;-89
2021/08/03 20:23:44;;;;;;;15.57;3.85;;;24.40;99.90;;;;;;4822860;29;20042;-85
2021/08/03 20:26:13;;;;;;;10.88;3.90;;;24.30;99.90;;;;;;4822392;29;20042;-85
2021/08/03 20:28:47;;;;;;;16.70;3.90;;;24.20;99.90;;;;;;4821708;29;20070;-84
2021/08/03 20:31:15;;;;;;;16.00;4.82;;;24.30;99.90;;;;;;4823127;29;20039;-81
2021/08/03 20:33:46;;;;;;;12.25;4.35;;;24.20;99.90;;;;;;4817806;29;20038;-81
2021/08/03 20:36:14;;;;;;;11.82;4.22;;;24.20;99.90;;;;;;4819136;29;20152;-87
2021/08/03 20:38:41;;;;;;;13.07;4.15;;;24.20;99.90;;;;;;4818991;29;20543;-82
2021/08/03 20:41:09;;;;;;;19.50;4.00;;;24.20;99.90;;;;;;4823591;29;20086;-87
2021/08/03 20:43:35;;;;;;;13.82;3.58;;;24.10;99.90;;;;;;4817602;29;20035;-84
2021/08/03 20:46:04;;;;;;;14.80;4.25;;;24.00;99.90;;;;;;4823663;29;20125;-83
2021/08/03 20:48:31;;;;;;;13.20;3.92;;;24.00;99.90;;;;;;4816263;29;20497;-89
2021/08/03 20:51:00;;;;;;;19.40;3.95;;;23.90;99.90;;;;;;4823241;29;20035;-86
2021/08/03 20:53:27;;;;;;;14.68;3.85;;;23.70;99.90;;;;;;4823081;29;20045;-88
2021/08/03 20:55:54;;;;;;;11.48;3.95;;;23.70;99.90;;;;;;4823676;29;20034;-89
2021/08/03 20:58:20;;;;;;;19.33;4.05;;;23.60;99.90;;;;;;4814695;29;20039;-83
2021/08/03 21:00:53;;;;;;;14.02;4.40;;;23.50;99.90;;;;;;4819193;29;20063;-89
2021/08/03 21:03:21;;;;;;;18.70;3.72;;;23.60;99.90;;;;;;4809888;29;20560;-82
2021/08/03 21:06:10;;;;;;;8.10;3.70;;;23.50;99.90;;;;;;4819537;29;20045;-83
2021/08/03 21:08:37;;;;;;;16.08;3.85;;;23.40;99.90;;;;;;4823720;29;20034;-83
2021/08/03 21:11:03;;;;;;;12.30;4.45;;;23.40;99.90;;;;;;4821489;29;20503;-84
2021/08/03 21:13:28;;;;;;;18.65;4.18;;;23.50;99.90;;;;;;4818681;29;20042;-82
2021/08/03 21:15:54;;;;;;;18.23;3.92;;;23.50;99.90;;;;;;4822518;29;20030;-87
2021/08/03 21:18:20;;;;;;;9.90;3.88;;;23.50;99.90;;;;;;4817380;29;20042;-89
2021/08/03 21:20:45;;;;;;;12.05;4.22;;;23.40;99.90;;;;;;4823277;29;20046;-82
2021/08/03 21:23:11;;;;;;;6.50;3.72;;;23.40;99.90;;;;;;4816164;29;20544;-85
2021/08/03 21:25:37;;;;;;;8.23;3.17;;;23.30;99.90;;;;;;4821953;29;20069;-83
2021/08/03 21:28:03;;;;;;;7.18;3.53;;;23.30;99.90;;;;;;4821893;29;20038;-87
2021/08/03 21:30:29;;;;;;;11.88;4.05;;;23.30;99.90;;;;;;4823043;29;20061;-89
2021/08/03 21:32:56;;;;;;;11.20;3.08;;;23.40;99.90;;;;;;4822657;29;20081;-85
2021/08/03 21:35:22;;;;;;;20.80;3.28;;;23.30;99.90;;;;;;4823541;29;20035;-83
2021/08/03 21:37:47;;;;;;;15.45;3.55;;;23.30;99.90;;;;;;4821773;29;20479;-88
2021/08/03 21:40:14;;;;;;;11.38;2.45;;;23.30;99.90;;;;;;4823670;29;20043;-83
2021/08/03 21:42:40;;;;;;;8.70;3.33;;;23.30;99.90;;;;;;4826535;29;20121;-88
2021/08/03 21:45:06;;;;;;;10.30;3.20;;;23.30;99.90;;;;;;4826574;29;20184;-87
2021/08/03 21:47:32;;;;;;;8.18;3.00;;;23.30;99.90;;;;;;4826380;29;20488;-88
2021/08/03 21:49:59;;;;;;;8.82;2.90;;;23.40;99.90;;;;;;4823197;29;20118;-89
2021/08/03 21:52:25;;;;;;;10.88;3.70;;;23.30;99.90;;;;;;4821260;29;20051;-89
2021/08/03 21:54:51;;;;;;;9.55;2.83;;;23.40;99.90;;;;;;4825108;29;20034;-87
2021/08/03 21:57:16;;;;;;;8.95;2.97;;;23.30;99.90;;;;;;4821893;29;20042;-87
2021/08/03 21:59:42;;;;;;;13.23;3.65;;;23.30;99.90;;;;;;4826439;29;20041;-87
2021/08/03 22:02:08;;;;;;;11.73;3.03;;;23.30;99.90;;;;;;4822783;29;20095;-89
2021/08/03 22:04:33;;;;;;;15.88;3.35;;;23.30;99.90;;;;;;4839203;29;20112;-87
2021/08/03 22:06:59;;;;;;;9.27;3.47;;;23.30;99.90;;;;;;4823847;29;20103;-88
2021/08/03 22:09:25;;;;;;;7.07;3.35;;;23.30;99.90;;;;;;4816349;29;20042;-86
2021/08/03 22:11:50;;;;;;;6.65;3.00;;;23.40;99.90;;;;;;4824983;29;20496;-88
2021/08/03 22:14:16;;;;;;;17.48;3.08;;;23.40;99.90;;;;;;4809170;29;20500;-88
2021/08/03 22:16:42;;;;;;;7.50;3.67;;;23.40;99.90;;;;;;4825206;29;20035;-89
2021/08/03 22:19:07;;;;;;;9.20;3.17;;;23.40;99.90;;;;;;4823378;29;20585;-88
2021/08/03 22:21:33;;;;;;;11.13;2.55;;;23.40;99.90;;;;;;4827805;29;20079;-87
2021/08/03 22:23:59;;;;;;;6.90;2.72;;;23.30;99.90;;;;;;4825090;29;20114;-86
2021/08/03 22:26:24;;;;;;;8.95;2.55;;;23.30;99.90;;;;;;4816599;29;20045;-88
2021/08/03 22:28:50;;;;;;;12.27;2.80;;;23.40;99.90;;;;;;4834358;29;20520;-88
2021/08/03 22:31:16;;;;;;;10.02;2.80;;;23.40;99.90;;;;;;4808092;29;20090;-88
2021/08/03 22:33:43;;;;;;;7.13;2.60;;;23.30;99.90;;;;;;4823839;29;20396;-89
2021/08/03 22:36:09;;;;;;;12.68;2.33;;;23.30;99.90;;;;;;4824853;29;20038;-86
2021/08/03 22:38:35;;;;;;;6.03;2.83;;;23.30;99.90;;;;;;4815697;29;20621;-89
2021/08/03 22:41:00;;;;;;;7.75;2.97;;;23.30;99.90;;;;;;4825806;29;20043;-87
2021/08/03 22:43:26;;;;;;;9.73;2.33;;;23.30;99.90;;;;;;4823406;29;20037;-89
2021/08/03 22:45:52;;;;;;;10.32;3.17;;;23.30;99.90;;;;;;4825258;29;20123;-89
2021/08/03 22:48:17;;;;;;;13.27;2.40;;;23.30;99.90;;;;;;4825567;29;20484;-83
2021/08/03 22:50:43;;;;;;;10.55;3.28;;;23.40;99.90;;;;;;4820181;29;20443;-83
2021/08/03 22:53:09;;;;;;;8.65;2.63;;;23.40;99.90;;;;;;4824624;29;20111;-89
2021/08/03 22:55:34;;;;;;;8.93;2.97;;;23.40;99.90;;;;;;4819090;29;20054;-89
2021/08/03 22:58:00;;;;;;;10.05;3.03;;;23.40;99.90;;;;;;4806979;29;20125;-87
2021/08/03 23:00:26;;;;;;;7.68;3.75;;;23.40;99.90;;;;;;4839123;29;20050;-82
2021/08/03 23:02:51;;;;;;;8.95;2.97;;;23.50;99.90;;;;;;4837662;29;20034;-89
2021/08/03 23:05:17;;;;;;;4.80;2.42;;;23.40;99.90;;;;;;4823877;29;20454;-89
2021/08/03 23:07:43;;;;;;;12.77;3.05;;;23.40;99.90;;;;;;4823569;29;20038;-88
2021/08/03 23:10:09;;;;;;;13.20;2.40;;;23.40;99.90;;;;;;4817764;29;20058;-89
2021/08/03 23:12:35;;;;;;;6.95;2.83;;;23.40;99.90;;;;;;4824676;29;20046;-89
2021/08/03 23:15:00;;;;;;;7.63;2.65;;;23.40;99.90;;;;;;4824355;29;20034;-86
2021/08/03 23:17:26;;;;;;;7.72;2.58;;;23.40;99.90;;;;;;4825364;29;20066;-85
2021/08/03 23:19:52;;;;;;;8.05;2.50;;;23.40;99.90;;;;;;4819572;29;20070;-85
2021/08/03 23:22:17;;;;;;;10.38;2.58;;;23.40;99.90;;;;;;4823573;29;20046;-83
2021/08/03 23:24:43;;;;;;;13.48;2.50;;;23.40;99.90;;;;;;4824464;29;20038;-83
2021/08/03 23:27:09;;;;;;;5.05;2.53;;;23.40;99.90;;;;;;4822745;29;20034;-83
2021/08/03 23:29:34;;;;;;;7.47;2.30;;;23.40;99.90;;;;;;4815426;29;20700;-84
2021/08/03 23:32:00;;;;;;;8.88;2.42;;;23.40;99.90;;;;;;4813809;29;20431;-85
2021/08/03 23:34:26;;;;;;;9.57;2.20;;;23.40;99.90;;;;;;4823358;29;20488;-85
2021/08/03 23:36:51;;;;;;;7.70;2.30;;;23.40;99.90;;;;;;4819122;29;20553;-82
2021/08/03 23:39:17;;;;;;;9.90;2.25;;;23.40;99.90;;;;;;4821643;29;20027;-81
2021/08/03 23:41:43;;;;;;;10.68;2.13;;;23.30;99.90;;;;;;4824319;29;20035;-84
2021/08/03 23:44:09;;;;;;;11.70;2.33;;;23.30;99.90;;;;;;4821042;29;20047;-81
2021/08/03 23:46:34;;;;;;;5.63;2.00;;;23.30;99.90;;;;;;4822445;29;20065;-80
2021/08/03 23:49:00;;;;;;;5.07;2.05;;;23.40;99.90;;;;;;4823978;29;20610;-81
2021/08/03 23:51:26;;;;;;;11.50;2.85;;;23.40;99.90;;;;;;4823714;29;20454;-80
2021/08/03 23:53:51;;;;;;;5.80;2.50;;;23.40;99.90;;;;;;4822557;29;20058;-82
2021/08/03 23:56:17;;;;;;;9.52;1.95;;;23.30;99.90;;;;;;4819771;29;20139;-81
2021/08/03 23:58:43;;;;;;;4.82;2.10;;;23.30;99.90;;;;;;4824422;29;20038;-85
